Terminal Aerodrome Forecast
Issued by NWS

Home | Current Version | Previous Version | Text Only | Print | Product List | Glossary On
Versions: 1 2 3 4 5 6 7 8 9 10 11 12 13 14 15 16 17 18 19 20 21 22 23
516
FTUS43 KGRR 300540
TAFLAN
TAF
KLAN 300540Z 3006/0106 07014G18KT P6SM -RA VCTS OVC035CB
     FM300800 09010KT P6SM -RA OVC035
     FM301600 08013G19KT 2SM -SHRA BR OVC020
     FM010200 09011KT 4SM -TSRA BR OVC008CB=

USA.gov is the U.S. government's official web portal to all federal, state and local government web resources and services.